createdAt,value
2023-02-09T00:01:30.406Z,2.60
2023-02-09T00:03:59.576Z,3.38
2023-02-09T00:06:30.013Z,2.53
2023-02-09T00:08:58.655Z,2.28
2023-02-09T00:11:48.816Z,1.75
2023-02-09T00:14:21.193Z,2.03
2023-02-09T00:16:49.643Z,2.33
2023-02-09T00:19:18.498Z,2.17
2023-02-09T00:21:45.474Z,2.35
2023-02-09T00:24:13.532Z,1.77
2023-02-09T00:26:41.969Z,2.33
2023-02-09T00:29:10.012Z,2.42
2023-02-09T00:31:37.300Z,2.20
2023-02-09T00:34:04.663Z,2.47
2023-02-09T00:36:32.277Z,2.58
2023-02-09T00:39:00.048Z,3.42
2023-02-09T00:41:45.931Z,2.20
2023-02-09T00:44:13.103Z,2.20
2023-02-09T00:46:40.063Z,2.58
2023-02-09T00:49:07.325Z,2.55
2023-02-09T00:51:34.899Z,2.17
2023-02-09T00:54:02.291Z,2.65
2023-02-09T00:56:29.297Z,2.63
2023-02-09T00:58:56.445Z,2.30
2023-02-09T01:01:23.508Z,2.53
2023-02-09T01:03:50.538Z,3.10
2023-02-09T01:06:17.703Z,2.10
2023-02-09T01:08:44.704Z,2.28
2023-02-09T01:11:14.727Z,2.58
2023-02-09T01:13:44.076Z,2.60
2023-02-09T01:16:16.264Z,2.28
2023-02-09T01:18:44.123Z,2.22
2023-02-09T01:21:13.815Z,2.28
2023-02-09T01:23:41.228Z,3.40
2023-02-09T01:26:10.787Z,1.80
2023-02-09T01:28:38.655Z,3.40
2023-02-09T01:31:16.672Z,1.95
2023-02-09T01:33:43.631Z,3.28
2023-02-09T01:36:10.897Z,2.05
2023-02-09T01:38:37.864Z,2.22
2023-02-09T01:41:05.028Z,3.17
2023-02-09T01:43:55.194Z,2.60
2023-02-09T01:46:24.824Z,2.22
2023-02-09T01:49:07.632Z,2.85
2023-02-09T01:51:57.463Z,1.95
2023-02-09T01:54:32.237Z,2.15
2023-02-09T01:57:07.104Z,3.40
2023-02-09T01:59:37.206Z,1.90
2023-02-09T02:02:06.662Z,2.75
2023-02-09T02:04:38.094Z,2.50
2023-02-09T02:07:33.521Z,2.40
2023-02-09T02:10:02.658Z,2.83
2023-02-09T02:12:30.888Z,2.10
2023-02-09T02:14:57.874Z,2.47
2023-02-09T02:17:55.847Z,2.42
2023-02-09T02:21:03.779Z,2.28
2023-02-09T02:24:21.825Z,2.20
2023-02-09T02:27:21.330Z,2.25
2023-02-09T02:30:06.938Z,1.95
2023-02-09T02:32:59.867Z,7.38
2023-02-09T02:35:51.491Z,2.55
2023-02-09T02:38:38.742Z,2.30
2023-02-09T02:41:19.271Z,2.63
2023-02-09T02:44:13.850Z,2.95
2023-02-09T02:46:47.740Z,2.70
2023-02-09T02:49:41.013Z,2.47
2023-02-09T02:52:10.726Z,1.80
2023-02-09T02:54:50.416Z,3.03
2023-02-09T02:57:22.090Z,3.10
2023-02-09T02:59:59.474Z,2.70
2023-02-09T03:02:47.715Z,2.53
2023-02-09T03:05:17.294Z,2.83
2023-02-09T03:07:44.565Z,2.97
2023-02-09T03:10:27.364Z,2.42
2023-02-09T03:13:12.593Z,2.63
2023-02-09T03:15:45.989Z,2.28
2023-02-09T03:18:52.928Z,3.10
2023-02-09T03:21:59.181Z,2.92
2023-02-09T03:24:42.920Z,2.10
2023-02-09T03:27:27.034Z,2.22
2023-02-09T03:29:59.856Z,1.83
2023-02-09T03:32:28.210Z,3.13
2023-02-09T03:34:56.727Z,3.13
2023-02-09T03:37:24.242Z,2.08
2023-02-09T03:39:51.175Z,1.92
2023-02-09T03:42:18.459Z,2.22
2023-02-09T03:44:45.517Z,1.90
2023-02-09T03:47:12.554Z,1.50
2023-02-09T03:49:41.783Z,2.20
2023-02-09T03:52:13.396Z,2.15
2023-02-09T03:54:40.899Z,1.92
2023-02-09T03:57:09.012Z,1.80
2023-02-09T03:59:37.824Z,2.15
2023-02-09T04:02:07.472Z,4.97
2023-02-09T04:04:34.781Z,3.17
2023-02-09T04:07:02.083Z,3.28
2023-02-09T04:09:29.840Z,2.10
2023-02-09T04:11:57.046Z,2.38
2023-02-09T04:14:24.792Z,1.75
2023-02-09T04:16:52.838Z,1.92
2023-02-09T04:19:19.840Z,3.22
2023-02-09T04:21:47.021Z,2.42
2023-02-09T04:24:14.206Z,1.80
2023-02-09T04:26:41.329Z,1.60
2023-02-09T04:29:08.396Z,2.03
2023-02-09T04:31:35.541Z,3.63
2023-02-09T04:34:02.652Z,2.15
2023-02-09T04:36:29.811Z,2.08
2023-02-09T04:38:57.013Z,2.10
2023-02-09T04:41:24.176Z,1.70
2023-02-09T04:43:51.351Z,3.03
2023-02-09T04:46:19.407Z,1.67
2023-02-09T04:48:47.007Z,2.10
2023-02-09T04:51:14.630Z,1.80
2023-02-09T04:53:41.784Z,2.55
2023-02-09T04:56:09.619Z,1.88
2023-02-09T04:58:54.912Z,2.03
2023-02-09T05:01:24.790Z,2.58
2023-02-09T05:03:52.718Z,2.90
2023-02-09T05:06:20.043Z,3.08
2023-02-09T05:08:47.638Z,1.65
2023-02-09T05:11:15.515Z,1.63
2023-02-09T05:13:42.877Z,3.53
2023-02-09T05:16:15.286Z,1.90
2023-02-09T05:18:42.386Z,2.30
2023-02-09T05:21:09.533Z,2.25
2023-02-09T05:23:36.722Z,2.08
2023-02-09T05:26:03.822Z,2.80
2023-02-09T05:28:31.085Z,1.83
2023-02-09T05:30:58.329Z,2.65
2023-02-09T05:33:26.263Z,2.75
2023-02-09T05:35:55.972Z,2.35
2023-02-09T05:38:23.693Z,2.42
2023-02-09T05:40:51.100Z,2.17
2023-02-09T05:43:18.594Z,2.15
2023-02-09T05:45:46.690Z,2.03
2023-02-09T05:48:13.885Z,2.03
2023-02-09T05:50:41.105Z,2.00
2023-02-09T05:53:09.357Z,2.90
2023-02-09T05:55:36.522Z,2.28
2023-02-09T05:58:03.642Z,2.65
2023-02-09T06:00:30.989Z,2.28
2023-02-09T06:02:58.830Z,2.15
2023-02-09T06:05:26.565Z,2.45
2023-02-09T06:07:53.959Z,2.33
2023-02-09T06:10:21.344Z,1.90
2023-02-09T06:12:48.647Z,1.42
2023-02-09T06:15:16.636Z,2.17
2023-02-09T06:17:44.128Z,1.50
2023-02-09T06:20:11.920Z,1.92
2023-02-09T06:22:40.117Z,1.83
2023-02-09T06:25:07.605Z,2.72
2023-02-09T06:27:34.751Z,1.67
2023-02-09T06:30:01.763Z,2.35
2023-02-09T06:32:28.768Z,1.90
2023-02-09T06:34:55.764Z,1.80
2023-02-09T06:37:23.043Z,2.90
2023-02-09T06:39:50.096Z,1.73
2023-02-09T06:42:17.192Z,1.75
2023-02-09T06:44:44.330Z,1.63
2023-02-09T06:47:11.452Z,1.95
2023-02-09T06:49:38.452Z,2.30
2023-02-09T06:52:06.116Z,2.83
2023-02-09T06:54:33.329Z,1.75
2023-02-09T06:57:00.629Z,2.97
2023-02-09T06:59:27.598Z,4.78
2023-02-09T07:01:55.184Z,1.52
2023-02-09T07:04:22.727Z,2.85
2023-02-09T07:06:49.972Z,2.28
2023-02-09T07:09:17.108Z,1.98
2023-02-09T07:11:44.129Z,1.95
2023-02-09T07:14:11.185Z,1.80
2023-02-09T07:16:38.276Z,1.83
2023-02-09T07:19:05.289Z,1.92
2023-02-09T07:21:32.345Z,2.10
2023-02-09T07:23:59.368Z,2.20
2023-02-09T07:26:26.622Z,1.42
2023-02-09T07:28:53.608Z,1.77
2023-02-09T07:31:20.759Z,1.85
2023-02-09T07:33:48.022Z,2.40
2023-02-09T07:36:16.721Z,1.35
2023-02-09T07:38:44.179Z,1.50
2023-02-09T07:41:18.359Z,1.77
2023-02-09T07:43:46.370Z,2.17
2023-02-09T07:46:17.733Z,2.03
2023-02-09T07:48:45.063Z,1.35
2023-02-09T07:51:19.874Z,1.77
2023-02-09T07:53:48.037Z,2.10
2023-02-09T07:56:15.091Z,1.80
2023-02-09T07:58:42.046Z,1.75
2023-02-09T08:01:12.256Z,1.83
2023-02-09T08:03:42.806Z,2.10
2023-02-09T08:06:41.340Z,1.83
2023-02-09T08:09:10.852Z,2.13
2023-02-09T08:11:48.985Z,1.85
2023-02-09T08:14:22.051Z,1.60
2023-02-09T08:17:12.815Z,1.70
2023-02-09T08:19:39.947Z,1.90
2023-02-09T08:22:06.947Z,2.17
2023-02-09T08:24:34.135Z,1.77
2023-02-09T08:27:01.199Z,2.38
2023-02-09T08:29:28.378Z,1.83
2023-02-09T08:31:55.490Z,1.70
2023-02-09T08:34:22.620Z,2.20
2023-02-09T08:36:50.234Z,1.70
2023-02-09T08:39:18.485Z,1.20
2023-02-09T08:41:46.429Z,1.80
2023-02-09T08:44:14.161Z,1.17
2023-02-09T08:46:41.548Z,1.60
2023-02-09T08:49:08.601Z,2.25
2023-02-09T08:51:37.346Z,1.70
2023-02-09T08:54:08.544Z,1.60
2023-02-09T08:56:36.996Z,1.60
2023-02-09T08:59:04.411Z,1.60
2023-02-09T09:01:31.488Z,1.67
2023-02-09T09:03:58.726Z,1.85
2023-02-09T09:06:27.016Z,1.63
2023-02-09T09:08:54.073Z,1.55
2023-02-09T09:11:21.139Z,1.52
2023-02-09T09:13:49.025Z,2.65
2023-02-09T09:16:22.098Z,2.08
2023-02-09T09:18:49.900Z,1.65
2023-02-09T09:21:18.768Z,1.50
2023-02-09T09:23:47.220Z,2.35
2023-02-09T09:26:15.709Z,1.20
2023-02-09T09:28:42.920Z,1.75
2023-02-09T09:31:12.698Z,1.77
2023-02-09T09:33:40.342Z,1.75
2023-02-09T09:36:08.435Z,1.80
2023-02-09T09:38:36.886Z,1.50
2023-02-09T09:41:29.183Z,1.48
2023-02-09T09:43:56.478Z,59.60
2023-02-09T09:46:35.424Z,57.17
2023-02-09T09:49:03.700Z,57.37
2023-02-09T09:51:41.330Z,56.43
2023-02-09T09:54:34.674Z,58.97
2023-02-09T09:57:02.552Z,58.33
2023-02-09T09:59:38.541Z,60.07
2023-02-09T10:02:23.525Z,58.57
2023-02-09T10:04:50.765Z,59.10
2023-02-09T10:07:23.357Z,61.23
2023-02-09T10:09:57.611Z,59.60
2023-02-09T10:12:39.483Z,59.33
2023-02-09T10:15:30.289Z,60.17
2023-02-09T10:17:58.472Z,62.93
2023-02-09T10:20:52.050Z,65.53
2023-02-09T10:23:44.884Z,60.97
2023-02-09T10:26:25.038Z,62.37
2023-02-09T10:28:59.511Z,61.47
2023-02-09T10:31:43.147Z,61.57
2023-02-09T10:34:19.865Z,60.60
2023-02-09T10:37:31.977Z,58.40
2023-02-09T10:40:18.018Z,56.57
2023-02-09T10:43:04.826Z,60.47
2023-02-09T10:45:51.900Z,59.93
2023-02-09T10:48:21.644Z,65.97
2023-02-09T10:51:29.417Z,59.90
2023-02-09T10:54:07.556Z,63.27
2023-02-09T10:56:42.847Z,64.97
2023-02-09T10:59:21.354Z,66.07
2023-02-09T11:02:01.128Z,68.13
2023-02-09T11:04:40.666Z,67.30
2023-02-09T11:07:18.346Z,69.93
2023-02-09T11:09:49.921Z,86.87
2023-02-09T11:12:17.023Z,69.17
2023-02-09T11:14:44.154Z,70.37
2023-02-09T11:17:36.673Z,71.53
2023-02-09T11:20:30.940Z,66.63
2023-02-09T11:23:28.476Z,67.87
2023-02-09T11:26:36.567Z,73.83
2023-02-09T11:30:14.031Z,78.17
2023-02-09T11:32:51.714Z,69.97
2023-02-09T11:35:37.715Z,76.57
2023-02-09T11:38:14.392Z,72.87
2023-02-09T11:40:51.296Z,73.97
2023-02-09T11:43:38.246Z,72.10
2023-02-09T11:46:22.211Z,71.80
2023-02-09T11:49:17.994Z,70.77
2023-02-09T11:51:47.005Z,76.90
2023-02-09T11:54:20.992Z,76.47
2023-02-09T11:56:53.067Z,73.40
2023-02-09T11:59:27.179Z,75.37
2023-02-09T12:02:25.947Z,78.87
2023-02-09T12:05:01.254Z,77.97
2023-02-09T12:08:16.454Z,78.67
2023-02-09T12:11:10.991Z,78.23
2023-02-09T12:14:13.578Z,99.67
2023-02-09T12:16:46.436Z,82.20
2023-02-09T12:19:38.319Z,82.63
2023-02-09T12:22:49.332Z,82.43
2023-02-09T12:25:22.735Z,87.43
2023-02-09T12:28:17.128Z,91.80
2023-02-09T12:30:44.477Z,88.97
2023-02-09T12:33:35.252Z,98.83
2023-02-09T12:36:09.326Z,107.73
2023-02-09T12:39:03.841Z,101.13
2023-02-09T12:41:35.312Z,115.67
2023-02-09T12:44:25.546Z,120.05
2023-02-09T12:46:55.849Z,153.45
2023-02-09T12:49:29.029Z,155.93
2023-02-09T12:52:02.150Z,120.25
2023-02-09T12:54:35.112Z,150.80
2023-02-09T12:57:18.028Z,129.98
2023-02-09T12:59:53.587Z,136.55
2023-02-09T13:02:26.363Z,152.90
2023-02-09T13:05:04.332Z,157.68
2023-02-09T13:07:34.273Z,176.43
2023-02-09T13:10:16.185Z,222.07
2023-02-09T13:12:50.868Z,154.80
2023-02-09T13:15:19.646Z,185.65
2023-02-09T13:18:28.902Z,204.10
2023-02-09T13:21:32.933Z,201.95
2023-02-09T13:24:14.919Z,186.93
2023-02-09T13:26:58.268Z,239.73
2023-02-09T13:29:29.189Z,238.15
2023-02-09T13:32:44.772Z,213.15
2023-02-09T13:35:28.843Z,212.38
2023-02-09T13:37:59.788Z,227.70
2023-02-09T13:40:29.912Z,253.35
2023-02-09T13:43:11.822Z,289.90
2023-02-09T13:45:54.603Z,296.30
2023-02-09T13:48:32.406Z,263.40
2023-02-09T13:51:04.169Z,292.77
2023-02-09T13:53:32.106Z,314.10
2023-02-09T13:56:00.684Z,304.52
2023-02-09T13:58:35.368Z,300.63
2023-02-09T14:01:15.732Z,374.17
2023-02-09T14:03:58.167Z,316.48
2023-02-09T14:06:36.238Z,325.08
2023-02-09T14:09:11.032Z,342.13
2023-02-09T14:11:42.924Z,368.08
2023-02-09T14:14:18.178Z,382.23
2023-02-09T14:16:53.366Z,359.40
2023-02-09T14:19:32.221Z,394.55
2023-02-09T14:21:59.447Z,382.02
2023-02-09T14:24:29.250Z,387.58
2023-02-09T14:27:26.130Z,393.60
2023-02-09T14:29:55.089Z,394.95
2023-02-09T14:32:48.437Z,370.90
2023-02-09T14:35:22.311Z,372.15
2023-02-09T14:37:52.280Z,386.48
2023-02-09T14:40:27.940Z,400.67
2023-02-09T14:43:06.896Z,486.13
2023-02-09T14:45:48.891Z,375.27
2023-02-09T14:48:24.893Z,362.65
2023-02-09T14:50:59.855Z,359.35
2023-02-09T14:53:30.825Z,378.60
2023-02-09T14:55:58.744Z,358.23
2023-02-09T14:58:30.568Z,375.88
2023-02-09T15:01:01.393Z,368.55
2023-02-09T15:03:28.757Z,364.02
2023-02-09T15:06:00.264Z,358.48
2023-02-09T15:08:30.761Z,385.88
2023-02-09T15:11:27.821Z,385.05
2023-02-09T15:14:03.847Z,356.80
2023-02-09T15:16:31.574Z,352.55
2023-02-09T15:18:59.049Z,357.08
2023-02-09T15:21:26.077Z,361.40
2023-02-09T15:23:53.135Z,372.77
2023-02-09T15:26:22.837Z,366.98
2023-02-09T15:28:50.158Z,361.05
2023-02-09T15:31:17.158Z,369.33
2023-02-09T15:33:44.608Z,359.83
2023-02-09T15:36:20.817Z,357.13
2023-02-09T15:38:48.030Z,359.42
2023-02-09T15:41:36.047Z,397.02
2023-02-09T15:44:40.215Z,342.60
2023-02-09T15:47:25.875Z,333.00
2023-02-09T15:49:52.819Z,326.55
2023-02-09T15:52:20.030Z,326.95
2023-02-09T15:54:49.343Z,333.45
2023-02-09T15:57:16.404Z,333.98
2023-02-09T15:59:43.442Z,307.90
2023-02-09T16:02:15.693Z,295.65
2023-02-09T16:04:43.172Z,289.30
2023-02-09T16:07:24.990Z,290.15
2023-02-09T16:09:52.592Z,265.25
2023-02-09T16:12:19.627Z,263.45
2023-02-09T16:14:46.737Z,247.50
2023-02-09T16:17:13.864Z,240.90
2023-02-09T16:19:41.094Z,239.50
2023-02-09T16:22:08.147Z,218.95
2023-02-09T16:24:43.964Z,211.32
2023-02-09T16:27:17.059Z,213.60
2023-02-09T16:29:44.150Z,194.02
2023-02-09T16:32:17.548Z,233.82
2023-02-09T16:34:45.625Z,189.32
2023-02-09T16:37:20.027Z,200.80
2023-02-09T16:39:47.151Z,204.38
2023-02-09T16:42:16.011Z,189.27
2023-02-09T16:44:43.212Z,148.75
2023-02-09T16:47:26.101Z,176.07
2023-02-09T16:50:23.601Z,145.23
2023-02-09T16:52:54.382Z,143.20
2023-02-09T16:55:29.137Z,147.87
2023-02-09T16:57:58.974Z,148.27
2023-02-09T17:00:34.451Z,216.73
2023-02-09T17:03:20.203Z,187.43
2023-02-09T17:05:52.871Z,124.27
2023-02-09T17:08:39.284Z,125.10
2023-02-09T17:11:07.972Z,123.27
2023-02-09T17:13:34.977Z,118.37
2023-02-09T17:16:05.168Z,116.43
2023-02-09T17:18:39.202Z,117.17
2023-02-09T17:21:27.975Z,113.60
2023-02-09T17:23:57.557Z,100.93
2023-02-09T17:26:25.094Z,119.47
2023-02-09T17:28:52.738Z,102.40
2023-02-09T17:31:27.818Z,131.57
2023-02-09T17:33:58.165Z,125.63
2023-02-09T17:36:28.454Z,114.03
2023-02-09T17:38:58.890Z,119.87
2023-02-09T17:41:42.092Z,95.37
2023-02-09T17:44:45.180Z,98.93
2023-02-09T17:47:19.305Z,89.13
2023-02-09T17:49:46.680Z,130.50
2023-02-09T17:52:19.121Z,92.63
2023-02-09T17:54:47.137Z,79.20
2023-02-09T17:57:16.494Z,84.83
2023-02-09T17:59:43.945Z,75.80
2023-02-09T18:02:19.886Z,86.90
2023-02-09T18:04:46.979Z,73.83
2023-02-09T18:07:20.580Z,73.90
2023-02-09T18:09:47.959Z,80.53
2023-02-09T18:12:26.709Z,76.57
2023-02-09T18:14:54.354Z,72.23
2023-02-09T18:17:23.662Z,73.73
2023-02-09T18:19:50.780Z,87.50
2023-02-09T18:22:18.087Z,84.90
2023-02-09T18:24:45.891Z,81.30
2023-02-09T18:27:21.049Z,83.33
2023-02-09T18:29:48.187Z,71.80
2023-02-09T18:32:16.812Z,69.13
2023-02-09T18:34:44.139Z,71.07
2023-02-09T18:37:11.163Z,74.97
2023-02-09T18:39:45.962Z,64.37
2023-02-09T18:42:15.477Z,75.43
2023-02-09T18:44:42.534Z,66.43
2023-02-09T18:47:11.046Z,69.80
2023-02-09T18:49:39.220Z,67.17
2023-02-09T18:52:06.361Z,77.40
2023-02-09T18:54:34.714Z,66.57
2023-02-09T18:57:01.752Z,62.73
2023-02-09T18:59:33.083Z,72.37
2023-02-09T19:02:00.883Z,65.73
2023-02-09T19:04:28.746Z,61.57
2023-02-09T19:06:55.960Z,65.50
2023-02-09T19:09:22.988Z,65.40
2023-02-09T19:11:50.231Z,69.10
2023-02-09T19:14:35.544Z,66.23
2023-02-09T19:17:02.508Z,64.63
2023-02-09T19:19:29.664Z,70.90
2023-02-09T19:21:57.952Z,62.33
2023-02-09T19:24:24.924Z,63.33
2023-02-09T19:26:52.004Z,75.17
2023-02-09T19:29:19.290Z,73.40
2023-02-09T19:31:46.661Z,62.20
2023-02-09T19:34:13.735Z,83.73
2023-02-09T19:36:40.782Z,68.57
2023-02-09T19:39:08.060Z,85.53
2023-02-09T19:41:36.388Z,83.43
2023-02-09T19:44:04.711Z,88.17
2023-02-09T19:46:33.625Z,83.03
2023-02-09T19:49:02.298Z,80.30
2023-02-09T19:51:29.963Z,79.97
2023-02-09T19:53:57.086Z,72.80
2023-02-09T19:56:24.388Z,71.17
2023-02-09T19:58:52.128Z,75.10
2023-02-09T20:01:20.674Z,72.40
2023-02-09T20:03:49.628Z,79.03
2023-02-09T20:06:17.248Z,69.60
2023-02-09T20:08:45.497Z,63.17
2023-02-09T20:11:17.501Z,68.97
2023-02-09T20:13:45.406Z,66.83
2023-02-09T20:16:19.494Z,60.23
2023-02-09T20:18:48.809Z,58.70
2023-02-09T20:21:21.422Z,63.37
2023-02-09T20:23:48.568Z,69.57
2023-02-09T20:26:22.759Z,63.87
2023-02-09T20:28:50.386Z,60.40
2023-02-09T20:31:32.712Z,69.00
2023-02-09T20:33:59.860Z,61.87
2023-02-09T20:36:27.040Z,60.73
2023-02-09T20:38:54.379Z,60.47
2023-02-09T20:41:22.336Z,65.53
2023-02-09T20:44:08.446Z,75.37
2023-02-09T20:46:56.306Z,65.27
2023-02-09T20:49:29.531Z,57.83
2023-02-09T20:51:57.084Z,58.73
2023-02-09T20:54:24.677Z,63.90
2023-02-09T20:56:51.864Z,60.47
2023-02-09T20:59:18.881Z,65.50
2023-02-09T21:01:46.086Z,62.73
2023-02-09T21:04:13.253Z,75.23
2023-02-09T21:06:40.345Z,93.60
2023-02-09T21:09:09.417Z,60.60
2023-02-09T21:11:36.636Z,60.30
2023-02-09T21:14:04.399Z,62.47
2023-02-09T21:16:32.194Z,66.07
2023-02-09T21:19:00.046Z,60.60
2023-02-09T21:21:27.618Z,68.23
2023-02-09T21:23:55.082Z,73.97
2023-02-09T21:26:24.470Z,66.33
2023-02-09T21:28:56.270Z,63.87
2023-02-09T21:31:26.580Z,57.23
2023-02-09T21:33:54.126Z,66.83
2023-02-09T21:36:21.169Z,59.60
2023-02-09T21:38:48.292Z,57.60
2023-02-09T21:41:40.780Z,63.07
2023-02-09T21:44:10.141Z,60.83
2023-02-09T21:46:37.500Z,55.27
2023-02-09T21:49:04.905Z,57.50
2023-02-09T21:51:31.971Z,61.37
2023-02-09T21:53:58.990Z,55.57
2023-02-09T21:56:26.221Z,59.33
2023-02-09T21:58:53.377Z,59.13
2023-02-09T22:01:20.342Z,58.60
2023-02-09T22:03:57.188Z,70.03
2023-02-09T22:06:26.335Z,64.97
2023-02-09T22:08:53.729Z,57.80
2023-02-09T22:11:20.896Z,58.23
2023-02-09T22:13:47.912Z,62.67
2023-02-09T22:16:20.772Z,60.60
2023-02-09T22:18:48.120Z,54.20
2023-02-09T22:21:15.352Z,57.37
2023-02-09T22:23:42.683Z,59.80
2023-02-09T22:26:10.610Z,60.87
2023-02-09T22:28:37.836Z,57.63
2023-02-09T22:31:12.008Z,58.47
2023-02-09T22:33:39.587Z,56.60
2023-02-09T22:36:13.575Z,57.07
2023-02-09T22:38:41.509Z,53.77
2023-02-09T22:41:21.487Z,56.47
2023-02-09T22:44:12.726Z,64.10
2023-02-09T22:46:43.214Z,57.30
2023-02-09T22:49:19.991Z,55.07
2023-02-09T22:51:48.862Z,61.87
2023-02-09T22:54:18.065Z,60.17
2023-02-09T22:56:45.264Z,56.00
2023-02-09T22:59:13.964Z,59.30
2023-02-09T23:01:41.073Z,57.43
2023-02-09T23:04:08.200Z,58.13
2023-02-09T23:06:35.220Z,55.27
2023-02-09T23:09:07.569Z,51.73
2023-02-09T23:11:35.617Z,54.87
2023-02-09T23:14:09.719Z,55.60
2023-02-09T23:16:38.321Z,53.27
2023-02-09T23:19:09.097Z,57.37
2023-02-09T23:21:39.724Z,55.13
2023-02-09T23:24:08.107Z,58.60
2023-02-09T23:26:35.911Z,53.73
2023-02-09T23:29:07.333Z,58.23
2023-02-09T23:31:36.593Z,55.30
2023-02-09T23:34:04.122Z,57.33
2023-02-09T23:36:33.367Z,52.57
2023-02-09T23:39:04.575Z,52.60
2023-02-09T23:41:31.747Z,56.27
2023-02-09T23:43:59.134Z,58.43
2023-02-09T23:46:28.907Z,58.77
2023-02-09T23:48:56.802Z,56.80
2023-02-09T23:51:31.756Z,55.67
2023-02-09T23:54:02.571Z,56.63
2023-02-09T23:56:36.812Z,56.73
2023-02-09T23:59:08.612Z,56.73
